createdAt,value
2022-12-28T00:03:48.939Z,4.95
2022-12-28T00:08:53.143Z,5.00
2022-12-28T00:13:55.738Z,5.01
2022-12-28T00:18:59.350Z,5.00
2022-12-28T00:24:03.805Z,5.11
2022-12-28T00:29:05.939Z,5.16
2022-12-28T00:34:07.643Z,5.15
2022-12-28T00:39:09.251Z,5.16
2022-12-28T00:44:11.122Z,5.24
2022-12-28T00:49:12.679Z,5.20
2022-12-28T00:54:14.322Z,5.31
2022-12-28T00:59:19.211Z,5.41
2022-12-28T01:04:21.062Z,5.40
2022-12-28T01:09:22.628Z,5.58
2022-12-28T01:14:24.510Z,5.79
2022-12-28T01:19:26.124Z,5.72
2022-12-28T01:24:30.336Z,5.90
2022-12-28T01:29:35.413Z,5.91
2022-12-28T01:34:37.575Z,5.90
2022-12-28T01:39:43.688Z,5.97
2022-12-28T01:44:52.841Z,5.94
2022-12-28T01:50:12.922Z,6.03
2022-12-28T01:55:21.687Z,6.07
2022-12-28T02:00:23.196Z,6.29
2022-12-28T02:05:29.471Z,6.19
2022-12-28T02:10:40.762Z,6.21
2022-12-28T02:15:47.455Z,6.25
2022-12-28T02:21:01.660Z,6.41
2022-12-28T02:26:48.994Z,6.51
2022-12-28T02:32:22.639Z,6.56
2022-12-28T02:37:37.293Z,6.57
2022-12-28T02:42:41.444Z,6.55
2022-12-28T02:47:44.551Z,6.62
2022-12-28T02:53:10.155Z,6.68
2022-12-28T02:58:17.673Z,6.59
2022-12-28T03:03:33.310Z,6.68
2022-12-28T03:08:46.019Z,6.68
2022-12-28T03:14:00.520Z,6.77
2022-12-28T03:19:08.624Z,6.80
2022-12-28T03:24:13.122Z,6.88
2022-12-28T03:29:25.675Z,6.83
2022-12-28T03:34:31.926Z,6.94
2022-12-28T03:39:53.896Z,6.95
2022-12-28T03:45:45.241Z,6.89
2022-12-28T03:50:44.360Z,7.05
2022-12-28T03:55:46.847Z,7.06
2022-12-28T04:00:48.443Z,7.02
2022-12-28T04:05:50.012Z,7.17
2022-12-28T04:11:05.878Z,7.24
2022-12-28T04:16:11.107Z,7.27
2022-12-28T04:21:14.546Z,7.27
2022-12-28T04:26:20.125Z,7.26
2022-12-28T04:31:22.262Z,7.31
2022-12-28T04:36:24.510Z,7.32
2022-12-28T04:41:26.389Z,7.40
2022-12-28T04:46:28.025Z,7.53
2022-12-28T04:51:33.405Z,7.48
2022-12-28T04:56:42.375Z,7.52
2022-12-28T05:01:44.661Z,7.63
2022-12-28T05:06:49.573Z,7.64
2022-12-28T05:11:59.225Z,7.63
2022-12-28T05:17:05.469Z,7.70
2022-12-28T05:22:08.763Z,7.77
2022-12-28T05:27:14.744Z,7.79
2022-12-28T05:32:20.742Z,7.93
2022-12-28T05:37:25.442Z,7.97
2022-12-28T05:42:27.005Z,8.00
2022-12-28T05:47:28.439Z,8.08
2022-12-28T05:52:29.908Z,8.06
2022-12-28T05:57:31.285Z,8.18
2022-12-28T06:02:33.096Z,8.03
2022-12-28T06:07:34.620Z,8.24
2022-12-28T06:12:36.161Z,8.33
2022-12-28T06:17:46.227Z,8.38
2022-12-28T06:22:47.885Z,8.38
2022-12-28T06:27:49.457Z,8.45
2022-12-28T06:32:51.016Z,8.38
2022-12-28T06:37:52.537Z,8.54
2022-12-28T06:42:55.261Z,8.50
2022-12-28T06:47:57.012Z,8.57
2022-12-28T06:52:58.777Z,8.59
2022-12-28T06:58:00.409Z,8.61
2022-12-28T07:03:04.622Z,8.55
2022-12-28T07:08:12.736Z,8.59
2022-12-28T07:13:14.852Z,8.66
2022-12-28T07:18:16.484Z,8.68
2022-12-28T07:23:18.009Z,8.70
2022-12-28T07:28:20.738Z,8.67
2022-12-28T07:33:22.354Z,8.55
2022-12-28T07:38:23.855Z,8.55
2022-12-28T07:43:31.637Z,8.61
2022-12-28T07:48:34.457Z,8.62
2022-12-28T07:53:37.413Z,8.62
2022-12-28T08:03:41.695Z,8.75
2022-12-28T08:08:47.888Z,8.77
2022-12-28T08:13:55.066Z,8.80
2022-12-28T08:18:56.697Z,8.83
2022-12-28T08:23:59.270Z,8.86
2022-12-28T08:29:03.204Z,8.93
2022-12-28T08:34:06.949Z,8.97
2022-12-28T08:39:08.813Z,9.06
2022-12-28T08:44:10.634Z,8.98
2022-12-28T08:49:15.294Z,9.16
2022-12-28T08:54:18.994Z,9.14
2022-12-28T08:59:20.660Z,9.18
2022-12-28T09:04:22.660Z,9.28
2022-12-28T09:09:24.176Z,9.34
2022-12-28T09:14:25.854Z,9.32
2022-12-28T09:19:27.355Z,9.31
2022-12-28T09:24:29.089Z,9.45
2022-12-28T09:29:30.552Z,9.39
2022-12-28T09:34:36.026Z,9.40
2022-12-28T09:39:42.011Z,9.48
2022-12-28T09:44:56.586Z,9.59
2022-12-28T09:50:03.065Z,9.67
2022-12-28T09:55:13.708Z,9.76
2022-12-28T10:00:22.555Z,9.83
2022-12-28T10:05:25.420Z,9.92
2022-12-28T10:10:28.347Z,9.89
2022-12-28T10:15:30.425Z,9.90
2022-12-28T10:20:32.803Z,9.81
2022-12-28T10:25:37.303Z,9.99
2022-12-28T10:31:06.231Z,10.18
2022-12-28T10:36:16.278Z,10.10
2022-12-28T10:41:20.342Z,10.04
2022-12-28T10:46:27.950Z,10.15
2022-12-28T10:51:30.555Z,10.32
2022-12-28T10:56:43.958Z,10.40
2022-12-28T11:01:45.674Z,10.55
2022-12-28T11:06:54.490Z,10.47
2022-12-28T11:12:15.818Z,10.29
2022-12-28T11:17:27.270Z,10.23
2022-12-28T11:22:37.843Z,10.22
2022-12-28T11:27:39.351Z,10.17
2022-12-28T11:32:48.655Z,10.33
2022-12-28T11:37:58.819Z,10.30
2022-12-28T11:43:00.131Z,10.38
2022-12-28T11:48:39.064Z,10.39
2022-12-28T11:53:46.684Z,10.46
2022-12-28T12:04:48.856Z,10.15
2022-12-28T12:10:31.041Z,10.22
2022-12-28T12:15:46.169Z,10.25
2022-12-28T12:21:10.110Z,10.27
2022-12-28T12:26:46.077Z,10.27
2022-12-28T12:31:56.276Z,10.15
2022-12-28T12:37:03.743Z,10.03
2022-12-28T12:42:29.015Z,9.98
2022-12-28T12:48:03.633Z,9.97
2022-12-28T12:53:30.123Z,10.07
2022-12-28T12:58:52.475Z,10.02
2022-12-28T13:04:06.512Z,10.02
2022-12-28T13:09:16.677Z,9.98
2022-12-28T13:14:22.907Z,9.92
2022-12-28T13:19:27.196Z,9.92
2022-12-28T13:24:31.449Z,9.96
2022-12-28T13:29:40.167Z,9.95
2022-12-28T13:34:49.556Z,9.96
2022-12-28T13:39:51.113Z,10.04
2022-12-28T13:45:19.799Z,10.03
2022-12-28T13:51:04.138Z,10.01
2022-12-28T13:56:07.440Z,9.87
2022-12-28T14:01:15.956Z,9.93
2022-12-28T14:06:19.104Z,9.90
2022-12-28T14:11:21.913Z,9.97
2022-12-28T14:16:24.736Z,9.96
2022-12-28T14:21:35.290Z,9.99
2022-12-28T14:26:42.895Z,9.89
2022-12-28T14:31:45.100Z,10.04
2022-12-28T14:36:52.708Z,9.93
2022-12-28T14:41:54.831Z,9.95
2022-12-28T14:46:56.879Z,9.89
2022-12-28T14:52:10.482Z,9.91
2022-12-28T14:57:42.720Z,9.89
2022-12-28T15:02:44.284Z,9.93
2022-12-28T15:07:45.810Z,9.90
2022-12-28T15:12:47.481Z,9.91
2022-12-28T15:17:51.985Z,9.86
2022-12-28T15:22:53.485Z,9.85
2022-12-28T15:27:54.969Z,9.81
2022-12-28T15:32:56.800Z,9.87
2022-12-28T15:37:58.285Z,9.77
2022-12-28T15:42:59.780Z,9.91
2022-12-28T15:48:01.422Z,9.89
2022-12-28T15:53:02.879Z,9.91
2022-12-28T15:58:04.457Z,9.89
2022-12-28T16:03:06.050Z,9.93
2022-12-28T16:08:07.624Z,9.97
2022-12-28T16:13:09.093Z,9.93
2022-12-28T16:18:10.575Z,9.88
2022-12-28T16:23:13.094Z,10.05
2022-12-28T16:28:14.615Z,10.00
2022-12-28T16:33:20.116Z,9.98
2022-12-28T16:38:23.764Z,10.05
2022-12-28T16:43:25.308Z,10.03
2022-12-28T16:48:26.899Z,10.01
2022-12-28T16:53:29.391Z,10.08
2022-12-28T16:58:31.382Z,9.99
2022-12-28T17:03:32.902Z,10.05
2022-12-28T17:08:35.694Z,9.97
2022-12-28T17:13:38.555Z,10.02
2022-12-28T17:18:40.019Z,9.93
2022-12-28T17:23:41.706Z,9.82
2022-12-28T17:28:43.564Z,9.63
2022-12-28T17:33:54.736Z,9.67
2022-12-28T17:38:56.429Z,9.56
2022-12-28T17:44:00.168Z,9.57
2022-12-28T17:49:01.652Z,9.49
2022-12-28T17:54:03.523Z,9.35
2022-12-28T17:59:05.138Z,9.29
2022-12-28T18:04:06.917Z,9.27
2022-12-28T18:09:08.322Z,9.14
2022-12-28T18:14:11.510Z,9.16
2022-12-28T18:19:13.286Z,9.12
2022-12-28T18:24:15.855Z,9.04
2022-12-28T18:29:17.800Z,8.99
2022-12-28T18:34:19.424Z,8.95
2022-12-28T18:39:23.838Z,8.88
2022-12-28T18:44:25.728Z,8.84
2022-12-28T18:49:27.222Z,8.83
2022-12-28T18:54:31.910Z,8.80
2022-12-28T18:59:35.442Z,8.84
2022-12-28T19:04:39.231Z,8.78
2022-12-28T19:09:43.453Z,8.82
2022-12-28T19:14:44.964Z,8.79
2022-12-28T19:19:46.325Z,8.84
2022-12-28T19:24:48.008Z,8.87
2022-12-28T19:29:49.656Z,8.83
2022-12-28T19:34:51.295Z,8.85
2022-12-28T19:39:57.611Z,8.83
2022-12-28T19:45:02.369Z,8.91
2022-12-28T19:50:06.795Z,8.88
2022-12-28T19:55:08.813Z,8.93
2022-12-28T20:00:11.132Z,8.93
2022-12-28T20:05:12.624Z,8.92
2022-12-28T20:10:14.201Z,8.97
2022-12-28T20:15:15.991Z,8.99
2022-12-28T20:20:19.598Z,9.11
2022-12-28T20:25:23.895Z,9.27
2022-12-28T20:30:25.430Z,9.28
2022-12-28T20:35:30.044Z,9.44
2022-12-28T20:40:31.617Z,9.61
2022-12-28T20:45:34.519Z,9.71
2022-12-28T20:50:35.991Z,9.76
2022-12-28T20:55:37.726Z,9.80
2022-12-28T21:00:39.403Z,9.91
2022-12-28T21:05:41.014Z,9.93
2022-12-28T21:10:47.028Z,9.99
2022-12-28T21:15:49.132Z,9.98
2022-12-28T21:20:54.976Z,9.98
2022-12-28T21:26:07.332Z,10.03
2022-12-28T21:31:09.661Z,9.99
2022-12-28T21:36:16.789Z,10.03
2022-12-28T21:41:21.472Z,9.94
2022-12-28T21:46:26.296Z,10.01
2022-12-28T21:51:27.807Z,10.00
2022-12-28T21:56:29.454Z,10.01
2022-12-28T22:01:33.554Z,9.94
2022-12-28T22:06:35.128Z,10.03
2022-12-28T22:11:36.535Z,10.02
2022-12-28T22:16:38.068Z,10.08
2022-12-28T22:21:39.657Z,10.13
2022-12-28T22:26:41.201Z,10.19
2022-12-28T22:31:43.340Z,10.11
2022-12-28T22:36:44.858Z,10.07
2022-12-28T22:41:46.328Z,10.04
2022-12-28T22:46:47.798Z,9.94
2022-12-28T22:51:53.440Z,9.85
2022-12-28T22:56:55.092Z,9.86
2022-12-28T23:01:56.889Z,9.93
2022-12-28T23:07:03.300Z,9.95
2022-12-28T23:12:05.641Z,9.88
2022-12-28T23:17:10.113Z,10.00
2022-12-28T23:22:14.206Z,10.05
2022-12-28T23:27:15.764Z,10.04
2022-12-28T23:32:17.164Z,10.07
2022-12-28T23:37:18.865Z,10.06
2022-12-28T23:42:20.502Z,10.19
2022-12-28T23:47:21.965Z,10.22
2022-12-28T23:52:26.023Z,10.19
2022-12-28T23:57:28.421Z,10.14
